sensor_id;sensor_type;location;lat;lon;timestamp;temperature;humidity
20732;DHT22;10527;52.124;5.196;2023-06-19T00:01:10;23.60;99.90
20732;DHT22;10527;52.124;5.196;2023-06-19T00:03:36;23.50;99.90
20732;DHT22;10527;52.124;5.196;2023-06-19T00:06:04;23.50;99.90
20732;DHT22;10527;52.124;5.196;2023-06-19T00:08:32;23.50;99.90
20732;DHT22;10527;52.124;5.196;2023-06-19T00:10:59;23.50;99.90
20732;DHT22;10527;52.124;5.196;2023-06-19T00:13:26;23.50;99.90
20732;DHT22;10527;52.124;5.196;2023-06-19T00:15:53;23.40;99.90
20732;DHT22;10527;52.124;5.196;2023-06-19T00:18:20;23.40;99.90
20732;DHT22;10527;52.124;5.196;2023-06-19T00:20:47;23.40;99.90
20732;DHT22;10527;52.124;5.196;2023-06-19T00:23:14;23.40;99.90
20732;DHT22;10527;52.124;5.196;2023-06-19T00:25:43;23.30;99.90
20732;DHT22;10527;52.124;5.196;2023-06-19T00:28:11;23.30;99.90
20732;DHT22;10527;52.124;5.196;2023-06-19T00:30:41;23.20;99.90
20732;DHT22;10527;52.124;5.196;2023-06-19T00:33:08;23.10;99.90
20732;DHT22;10527;52.124;5.196;2023-06-19T00:35:36;23.10;99.90
20732;DHT22;10527;52.124;5.196;2023-06-19T00:38:03;22.90;99.90
20732;DHT22;10527;52.124;5.196;2023-06-19T00:40:33;23.00;99.90
20732;DHT22;10527;52.124;5.196;2023-06-19T00:43:00;23.00;99.90
20732;DHT22;10527;52.124;5.196;2023-06-19T00:45:28;22.90;99.90
20732;DHT22;10527;52.124;5.196;2023-06-19T00:47:57;22.80;99.90
20732;DHT22;10527;52.124;5.196;2023-06-19T00:50:28;22.80;99.90
20732;DHT22;10527;52.124;5.196;2023-06-19T00:52:58;22.80;99.90
20732;DHT22;10527;52.124;5.196;2023-06-19T00:55:28;22.70;99.90
20732;DHT22;10527;52.124;5.196;2023-06-19T00:57:56;22.70;99.90
20732;DHT22;10527;52.124;5.196;2023-06-19T01:00:23;22.70;99.90
20732;DHT22;10527;52.124;5.196;2023-06-19T01:02:50;22.60;99.90
20732;DHT22;10527;52.124;5.196;2023-06-19T01:05:18;22.50;99.90
20732;DHT22;10527;52.124;5.196;2023-06-19T01:10:43;22.30;99.90
20732;DHT22;10527;52.124;5.196;2023-06-19T01:13:55;22.30;99.90
20732;DHT22;10527;52.124;5.196;2023-06-19T01:16:28;22.20;99.90
20732;DHT22;10527;52.124;5.196;2023-06-19T01:18:56;22.00;99.90
20732;DHT22;10527;52.124;5.196;2023-06-19T01:21:24;22.00;99.90
20732;DHT22;10527;52.124;5.196;2023-06-19T01:23:51;21.90;99.90
20732;DHT22;10527;52.124;5.196;2023-06-19T01:26:19;21.80;99.90
20732;DHT22;10527;52.124;5.196;2023-06-19T01:28:52;21.80;99.90
20732;DHT22;10527;52.124;5.196;2023-06-19T01:31:30;21.60;99.90
20732;DHT22;10527;52.124;5.196;2023-06-19T01:34:01;21.50;99.90
20732;DHT22;10527;52.124;5.196;2023-06-19T01:36:32;21.50;99.90
20732;DHT22;10527;52.124;5.196;2023-06-19T01:39:01;21.60;99.90
20732;DHT22;10527;52.124;5.196;2023-06-19T01:41:30;21.60;99.90
20732;DHT22;10527;52.124;5.196;2023-06-19T01:43:59;21.60;99.90
20732;DHT22;10527;52.124;5.196;2023-06-19T01:46:26;21.60;99.90
20732;DHT22;10527;52.124;5.196;2023-06-19T01:48:53;21.60;99.90
20732;DHT22;10527;52.124;5.196;2023-06-19T01:51:21;21.70;99.90
20732;DHT22;10527;52.124;5.196;2023-06-19T01:53:48;21.70;99.90
20732;DHT22;10527;52.124;5.196;2023-06-19T01:56:14;21.70;99.90
20732;DHT22;10527;52.124;5.196;2023-06-19T01:58:41;21.70;99.90
20732;DHT22;10527;52.124;5.196;2023-06-19T02:01:08;21.70;99.90
20732;DHT22;10527;52.124;5.196;2023-06-19T02:03:35;21.70;99.90
20732;DHT22;10527;52.124;5.196;2023-06-19T02:06:02;21.70;99.90
20732;DHT22;10527;52.124;5.196;2023-06-19T02:08:29;21.70;99.90
20732;DHT22;10527;52.124;5.196;2023-06-19T02:10:56;21.60;99.90
20732;DHT22;10527;52.124;5.196;2023-06-19T02:13:23;21.70;99.90
20732;DHT22;10527;52.124;5.196;2023-06-19T02:15:52;21.60;99.90
20732;DHT22;10527;52.124;5.196;2023-06-19T02:18:19;21.50;99.90
20732;DHT22;10527;52.124;5.196;2023-06-19T02:20:48;21.60;99.90
20732;DHT22;10527;52.124;5.196;2023-06-19T02:23:15;21.50;99.90
20732;DHT22;10527;52.124;5.196;2023-06-19T02:25:41;21.50;99.90
20732;DHT22;10527;52.124;5.196;2023-06-19T02:28:08;21.60;99.90
20732;DHT22;10527;52.124;5.196;2023-06-19T02:30:35;21.50;99.90
20732;DHT22;10527;52.124;5.196;2023-06-19T02:33:02;21.50;99.90
20732;DHT22;10527;52.124;5.196;2023-06-19T02:35:29;21.50;99.90
20732;DHT22;10527;52.124;5.196;2023-06-19T02:37:56;21.50;99.90
20732;DHT22;10527;52.124;5.196;2023-06-19T02:40:24;21.50;99.90
20732;DHT22;10527;52.124;5.196;2023-06-19T02:42:51;21.40;99.90
20732;DHT22;10527;52.124;5.196;2023-06-19T02:45:18;21.40;99.90
20732;DHT22;10527;52.124;5.196;2023-06-19T02:47:45;21.40;99.90
20732;DHT22;10527;52.124;5.196;2023-06-19T02:50:12;21.50;99.90
20732;DHT22;10527;52.124;5.196;2023-06-19T02:52:39;21.40;99.90
20732;DHT22;10527;52.124;5.196;2023-06-19T02:55:07;21.40;99.90
20732;DHT22;10527;52.124;5.196;2023-06-19T02:57:35;21.40;99.90
20732;DHT22;10527;52.124;5.196;2023-06-19T03:00:02;21.40;99.90
20732;DHT22;10527;52.124;5.196;2023-06-19T03:02:32;21.40;99.90
20732;DHT22;10527;52.124;5.196;2023-06-19T03:04:59;21.40;99.90
20732;DHT22;10527;52.124;5.196;2023-06-19T03:07:26;21.50;99.90
20732;DHT22;10527;52.124;5.196;2023-06-19T03:09:55;21.40;99.90
20732;DHT22;10527;52.124;5.196;2023-06-19T03:12:22;21.40;99.90
20732;DHT22;10527;52.124;5.196;2023-06-19T03:14:48;21.30;99.90
20732;DHT22;10527;52.124;5.196;2023-06-19T03:17:15;21.30;99.90
20732;DHT22;10527;52.124;5.196;2023-06-19T03:19:42;21.30;99.90
20732;DHT22;10527;52.124;5.196;2023-06-19T03:22:09;21.20;99.90
20732;DHT22;10527;52.124;5.196;2023-06-19T03:24:36;21.10;99.90
20732;DHT22;10527;52.124;5.196;2023-06-19T03:27:03;21.10;99.90
20732;DHT22;10527;52.124;5.196;2023-06-19T03:29:30;21.00;99.90
20732;DHT22;10527;52.124;5.196;2023-06-19T03:31:57;21.00;99.90
20732;DHT22;10527;52.124;5.196;2023-06-19T03:34:23;20.90;99.90
20732;DHT22;10527;52.124;5.196;2023-06-19T03:36:53;20.80;99.90
20732;DHT22;10527;52.124;5.196;2023-06-19T03:39:23;20.80;99.90
20732;DHT22;10527;52.124;5.196;2023-06-19T03:41:50;20.90;99.90
20732;DHT22;10527;52.124;5.196;2023-06-19T03:44:17;20.80;99.90
20732;DHT22;10527;52.124;5.196;2023-06-19T03:46:44;20.80;99.90
20732;DHT22;10527;52.124;5.196;2023-06-19T03:49:10;20.70;99.90
20732;DHT22;10527;52.124;5.196;2023-06-19T03:51:38;20.70;99.90
20732;DHT22;10527;52.124;5.196;2023-06-19T03:54:05;20.70;99.90
20732;DHT22;10527;52.124;5.196;2023-06-19T03:56:32;20.60;99.90
20732;DHT22;10527;52.124;5.196;2023-06-19T03:58:58;20.70;99.90
20732;DHT22;10527;52.124;5.196;2023-06-19T04:01:25;20.70;99.90
20732;DHT22;10527;52.124;5.196;2023-06-19T04:03:52;20.60;99.90
20732;DHT22;10527;52.124;5.196;2023-06-19T04:06:19;20.60;99.90
20732;DHT22;10527;52.124;5.196;2023-06-19T04:08:46;20.50;99.90
20732;DHT22;10527;52.124;5.196;2023-06-19T04:11:12;20.50;99.90
20732;DHT22;10527;52.124;5.196;2023-06-19T04:13:40;20.50;99.90
20732;DHT22;10527;52.124;5.196;2023-06-19T04:16:08;20.50;99.90
20732;DHT22;10527;52.124;5.196;2023-06-19T04:18:35;20.40;99.90
20732;DHT22;10527;52.124;5.196;2023-06-19T04:21:02;20.30;99.90
20732;DHT22;10527;52.124;5.196;2023-06-19T04:23:29;20.30;99.90
20732;DHT22;10527;52.124;5.196;2023-06-19T04:25:56;20.30;99.90
20732;DHT22;10527;52.124;5.196;2023-06-19T04:28:22;20.30;99.90
20732;DHT22;10527;52.124;5.196;2023-06-19T04:30:49;20.30;99.90
20732;DHT22;10527;52.124;5.196;2023-06-19T04:33:16;20.20;99.90
20732;DHT22;10527;52.124;5.196;2023-06-19T04:35:48;20.30;99.90
20732;DHT22;10527;52.124;5.196;2023-06-19T04:38:15;20.30;99.90
20732;DHT22;10527;52.124;5.196;2023-06-19T04:40:42;20.20;99.90
20732;DHT22;10527;52.124;5.196;2023-06-19T04:43:09;20.20;99.90
20732;DHT22;10527;52.124;5.196;2023-06-19T04:45:36;20.10;99.90
20732;DHT22;10527;52.124;5.196;2023-06-19T04:48:04;20.10;99.90
20732;DHT22;10527;52.124;5.196;2023-06-19T04:50:30;20.00;99.90
20732;DHT22;10527;52.124;5.196;2023-06-19T04:52:57;20.10;99.90
20732;DHT22;10527;52.124;5.196;2023-06-19T04:55:24;20.10;99.90
20732;DHT22;10527;52.124;5.196;2023-06-19T04:57:52;20.00;99.90
20732;DHT22;10527;52.124;5.196;2023-06-19T05:00:19;19.90;99.90
20732;DHT22;10527;52.124;5.196;2023-06-19T05:02:50;20.00;99.90
20732;DHT22;10527;52.124;5.196;2023-06-19T05:05:17;19.80;99.90
20732;DHT22;10527;52.124;5.196;2023-06-19T05:07:47;19.90;99.90
20732;DHT22;10527;52.124;5.196;2023-06-19T05:10:14;19.90;99.90
20732;DHT22;10527;52.124;5.196;2023-06-19T05:12:42;20.00;99.90
20732;DHT22;10527;52.124;5.196;2023-06-19T05:15:09;20.00;99.90
20732;DHT22;10527;52.124;5.196;2023-06-19T05:17:36;20.10;99.90
20732;DHT22;10527;52.124;5.196;2023-06-19T05:20:06;20.10;99.90
20732;DHT22;10527;52.124;5.196;2023-06-19T05:22:35;20.10;99.90
20732;DHT22;10527;52.124;5.196;2023-06-19T05:25:03;20.00;99.90
20732;DHT22;10527;52.124;5.196;2023-06-19T05:27:30;20.10;99.90
20732;DHT22;10527;52.124;5.196;2023-06-19T05:29:57;20.10;99.90
20732;DHT22;10527;52.124;5.196;2023-06-19T05:32:24;20.10;99.90
20732;DHT22;10527;52.124;5.196;2023-06-19T05:34:51;20.10;99.90
20732;DHT22;10527;52.124;5.196;2023-06-19T05:37:19;20.20;99.90
20732;DHT22;10527;52.124;5.196;2023-06-19T05:39:46;20.10;99.90
20732;DHT22;10527;52.124;5.196;2023-06-19T05:42:12;20.00;99.90
20732;DHT22;10527;52.124;5.196;2023-06-19T05:44:39;20.00;99.90
20732;DHT22;10527;52.124;5.196;2023-06-19T05:47:06;19.90;99.90
20732;DHT22;10527;52.124;5.196;2023-06-19T05:49:33;19.90;99.90
20732;DHT22;10527;52.124;5.196;2023-06-19T05:52:00;19.80;99.90
20732;DHT22;10527;52.124;5.196;2023-06-19T05:54:27;20.00;99.90
20732;DHT22;10527;52.124;5.196;2023-06-19T05:56:54;20.10;99.90
20732;DHT22;10527;52.124;5.196;2023-06-19T05:59:21;20.10;99.90
20732;DHT22;10527;52.124;5.196;2023-06-19T06:01:48;20.00;99.90
20732;DHT22;10527;52.124;5.196;2023-06-19T06:04:17;19.90;99.90
20732;DHT22;10527;52.124;5.196;2023-06-19T06:06:46;19.90;99.90
20732;DHT22;10527;52.124;5.196;2023-06-19T06:09:13;20.00;99.90
20732;DHT22;10527;52.124;5.196;2023-06-19T06:11:41;20.00;99.90
20732;DHT22;10527;52.124;5.196;2023-06-19T06:14:08;20.10;99.90
20732;DHT22;10527;52.124;5.196;2023-06-19T06:16:38;20.10;99.90
20732;DHT22;10527;52.124;5.196;2023-06-19T06:19:06;20.20;99.90
20732;DHT22;10527;52.124;5.196;2023-06-19T06:21:33;20.10;99.90
20732;DHT22;10527;52.124;5.196;2023-06-19T06:24:01;20.20;99.90
20732;DHT22;10527;52.124;5.196;2023-06-19T06:26:32;20.10;99.90
20732;DHT22;10527;52.124;5.196;2023-06-19T06:29:00;20.20;99.90
20732;DHT22;10527;52.124;5.196;2023-06-19T06:31:27;20.20;99.90
20732;DHT22;10527;52.124;5.196;2023-06-19T06:33:54;20.20;99.90
20732;DHT22;10527;52.124;5.196;2023-06-19T06:36:21;20.10;99.90
20732;DHT22;10527;52.124;5.196;2023-06-19T06:39:02;20.30;99.90
20732;DHT22;10527;52.124;5.196;2023-06-19T06:41:29;20.30;99.90
20732;DHT22;10527;52.124;5.196;2023-06-19T06:43:56;20.20;99.90
20732;DHT22;10527;52.124;5.196;2023-06-19T06:46:23;20.20;99.90
20732;DHT22;10527;52.124;5.196;2023-06-19T06:48:50;20.30;99.90
20732;DHT22;10527;52.124;5.196;2023-06-19T06:51:17;20.30;99.90
20732;DHT22;10527;52.124;5.196;2023-06-19T06:53:44;20.40;99.90
20732;DHT22;10527;52.124;5.196;2023-06-19T06:56:12;20.20;99.90
20732;DHT22;10527;52.124;5.196;2023-06-19T06:58:39;20.20;99.90
20732;DHT22;10527;52.124;5.196;2023-06-19T07:01:06;20.30;99.90
20732;DHT22;10527;52.124;5.196;2023-06-19T07:03:33;20.30;99.90
20732;DHT22;10527;52.124;5.196;2023-06-19T07:06:02;20.20;99.90
20732;DHT22;10527;52.124;5.196;2023-06-19T07:08:29;20.10;99.90
20732;DHT22;10527;52.124;5.196;2023-06-19T07:10:56;20.20;99.90
20732;DHT22;10527;52.124;5.196;2023-06-19T07:13:24;20.10;99.90
20732;DHT22;10527;52.124;5.196;2023-06-19T07:15:52;20.10;99.90
20732;DHT22;10527;52.124;5.196;2023-06-19T07:18:19;20.10;99.90
20732;DHT22;10527;52.124;5.196;2023-06-19T07:20:46;20.20;99.90
20732;DHT22;10527;52.124;5.196;2023-06-19T07:23:14;20.40;99.90
20732;DHT22;10527;52.124;5.196;2023-06-19T07:25:41;20.30;99.90
20732;DHT22;10527;52.124;5.196;2023-06-19T07:28:07;20.30;99.90
20732;DHT22;10527;52.124;5.196;2023-06-19T07:30:34;20.50;99.90
20732;DHT22;10527;52.124;5.196;2023-06-19T07:33:01;20.50;99.90
20732;DHT22;10527;52.124;5.196;2023-06-19T07:35:28;20.50;99.90
20732;DHT22;10527;52.124;5.196;2023-06-19T07:37:55;20.50;99.90
20732;DHT22;10527;52.124;5.196;2023-06-19T07:40:22;20.70;99.90
20732;DHT22;10527;52.124;5.196;2023-06-19T07:42:49;20.80;99.90
20732;DHT22;10527;52.124;5.196;2023-06-19T07:45:16;20.60;99.90
20732;DHT22;10527;52.124;5.196;2023-06-19T07:47:43;20.60;99.90
20732;DHT22;10527;52.124;5.196;2023-06-19T07:50:10;20.70;99.90
20732;DHT22;10527;52.124;5.196;2023-06-19T07:52:37;20.60;99.90
20732;DHT22;10527;52.124;5.196;2023-06-19T07:55:04;20.60;99.90
20732;DHT22;10527;52.124;5.196;2023-06-19T07:57:31;20.70;99.90
20732;DHT22;10527;52.124;5.196;2023-06-19T07:59:58;20.70;99.90
20732;DHT22;10527;52.124;5.196;2023-06-19T08:02:25;20.60;99.90
20732;DHT22;10527;52.124;5.196;2023-06-19T08:04:54;20.60;99.90
20732;DHT22;10527;52.124;5.196;2023-06-19T08:07:20;20.70;99.90
20732;DHT22;10527;52.124;5.196;2023-06-19T08:09:47;20.70;99.90
20732;DHT22;10527;52.124;5.196;2023-06-19T08:12:30;20.60;99.90
20732;DHT22;10527;52.124;5.196;2023-06-19T08:14:57;20.80;99.90
20732;DHT22;10527;52.124;5.196;2023-06-19T08:17:24;20.80;99.90
20732;DHT22;10527;52.124;5.196;2023-06-19T08:19:50;21.00;99.90
20732;DHT22;10527;52.124;5.196;2023-06-19T08:22:17;21.10;99.90
20732;DHT22;10527;52.124;5.196;2023-06-19T08:24:45;21.10;99.90
20732;DHT22;10527;52.124;5.196;2023-06-19T08:27:11;21.20;99.90
20732;DHT22;10527;52.124;5.196;2023-06-19T08:29:38;21.10;99.90
20732;DHT22;10527;52.124;5.196;2023-06-19T08:32:05;21.20;99.90
20732;DHT22;10527;52.124;5.196;2023-06-19T08:34:36;21.30;99.90
20732;DHT22;10527;52.124;5.196;2023-06-19T08:37:06;21.40;99.90
20732;DHT22;10527;52.124;5.196;2023-06-19T08:39:33;21.30;99.90
20732;DHT22;10527;52.124;5.196;2023-06-19T08:42:24;21.40;99.90
20732;DHT22;10527;52.124;5.196;2023-06-19T08:44:51;21.40;99.90
20732;DHT22;10527;52.124;5.196;2023-06-19T08:47:18;21.40;99.90
20732;DHT22;10527;52.124;5.196;2023-06-19T08:49:45;21.20;99.90
20732;DHT22;10527;52.124;5.196;2023-06-19T08:52:12;21.20;99.90
20732;DHT22;10527;52.124;5.196;2023-06-19T08:54:39;21.30;99.90
20732;DHT22;10527;52.124;5.196;2023-06-19T08:57:11;21.40;99.90
20732;DHT22;10527;52.124;5.196;2023-06-19T08:59:49;21.50;99.90
20732;DHT22;10527;52.124;5.196;2023-06-19T09:02:16;21.80;99.90
20732;DHT22;10527;52.124;5.196;2023-06-19T09:04:45;21.80;99.90
20732;DHT22;10527;52.124;5.196;2023-06-19T09:07:13;21.70;99.90
20732;DHT22;10527;52.124;5.196;2023-06-19T09:09:45;21.80;99.90
20732;DHT22;10527;52.124;5.196;2023-06-19T09:12:15;21.80;99.90
20732;DHT22;10527;52.124;5.196;2023-06-19T09:14:44;21.70;99.90
20732;DHT22;10527;52.124;5.196;2023-06-19T09:17:21;21.80;99.90
20732;DHT22;10527;52.124;5.196;2023-06-19T09:19:49;21.80;99.90
20732;DHT22;10527;52.124;5.196;2023-06-19T09:22:20;21.90;99.90
20732;DHT22;10527;52.124;5.196;2023-06-19T09:24:49;22.00;99.90
20732;DHT22;10527;52.124;5.196;2023-06-19T09:27:19;21.90;99.90
20732;DHT22;10527;52.124;5.196;2023-06-19T09:29:48;21.90;99.90
20732;DHT22;10527;52.124;5.196;2023-06-19T09:32:24;22.00;99.90
20732;DHT22;10527;52.124;5.196;2023-06-19T09:34:57;21.90;99.90
20732;DHT22;10527;52.124;5.196;2023-06-19T09:37:47;21.90;99.90
20732;DHT22;10527;52.124;5.196;2023-06-19T09:40:15;22.00;99.90
20732;DHT22;10527;52.124;5.196;2023-06-19T09:42:43;22.30;99.90
20732;DHT22;10527;52.124;5.196;2023-06-19T09:45:12;21.90;99.90
20732;DHT22;10527;52.124;5.196;2023-06-19T09:47:47;21.90;99.90
20732;DHT22;10527;52.124;5.196;2023-06-19T09:50:18;22.20;99.90
20732;DHT22;10527;52.124;5.196;2023-06-19T09:52:45;22.10;99.90
20732;DHT22;10527;52.124;5.196;2023-06-19T09:55:12;22.10;99.90
20732;DHT22;10527;52.124;5.196;2023-06-19T09:57:40;22.30;99.90
20732;DHT22;10527;52.124;5.196;2023-06-19T10:00:13;22.30;99.90
20732;DHT22;10527;52.124;5.196;2023-06-19T10:03:04;22.50;99.90
20732;DHT22;10527;52.124;5.196;2023-06-19T10:05:37;22.70;99.90
20732;DHT22;10527;52.124;5.196;2023-06-19T10:08:05;22.70;99.90
20732;DHT22;10527;52.124;5.196;2023-06-19T10:10:33;22.60;99.90
20732;DHT22;10527;52.124;5.196;2023-06-19T10:13:14;22.40;99.90
20732;DHT22;10527;52.124;5.196;2023-06-19T10:15:44;22.40;99.90
20732;DHT22;10527;52.124;5.196;2023-06-19T10:18:15;22.80;99.90
20732;DHT22;10527;52.124;5.196;2023-06-19T10:20:48;22.90;99.90
20732;DHT22;10527;52.124;5.196;2023-06-19T10:23:22;22.80;99.90
20732;DHT22;10527;52.124;5.196;2023-06-19T10:28:32;23.30;99.90
20732;DHT22;10527;52.124;5.196;2023-06-19T10:33:36;23.40;99.90
20732;DHT22;10527;52.124;5.196;2023-06-19T10:36:17;23.50;99.90
20732;DHT22;10527;52.124;5.196;2023-06-19T10:38:47;23.70;99.90
20732;DHT22;10527;52.124;5.196;2023-06-19T10:41:19;23.70;99.90
20732;DHT22;10527;52.124;5.196;2023-06-19T10:46:34;24.00;99.90
20732;DHT22;10527;52.124;5.196;2023-06-19T10:49:06;23.80;99.90
20732;DHT22;10527;52.124;5.196;2023-06-19T10:51:40;24.00;99.90
20732;DHT22;10527;52.124;5.196;2023-06-19T10:54:10;24.40;99.90
20732;DHT22;10527;52.124;5.196;2023-06-19T10:56:37;24.10;99.90
20732;DHT22;10527;52.124;5.196;2023-06-19T10:59:08;24.10;99.90
20732;DHT22;10527;52.124;5.196;2023-06-19T11:01:45;24.30;99.90
20732;DHT22;10527;52.124;5.196;2023-06-19T11:04:14;24.10;99.90
20732;DHT22;10527;52.124;5.196;2023-06-19T11:06:43;24.30;99.90
20732;DHT22;10527;52.124;5.196;2023-06-19T11:09:12;24.60;99.90
20732;DHT22;10527;52.124;5.196;2023-06-19T11:11:42;24.40;99.90
20732;DHT22;10527;52.124;5.196;2023-06-19T11:14:12;24.40;99.90
20732;DHT22;10527;52.124;5.196;2023-06-19T11:16:45;24.20;99.90
20732;DHT22;10527;52.124;5.196;2023-06-19T11:19:18;24.00;99.90
20732;DHT22;10527;52.124;5.196;2023-06-19T11:21:49;24.20;99.90
20732;DHT22;10527;52.124;5.196;2023-06-19T11:24:18;24.30;99.90
20732;DHT22;10527;52.124;5.196;2023-06-19T11:26:47;24.30;99.90
20732;DHT22;10527;52.124;5.196;2023-06-19T11:29:31;24.50;99.90
20732;DHT22;10527;52.124;5.196;2023-06-19T11:32:14;24.60;99.90
20732;DHT22;10527;52.124;5.196;2023-06-19T11:34:44;24.70;99.90
20732;DHT22;10527;52.124;5.196;2023-06-19T11:37:18;24.60;99.90
20732;DHT22;10527;52.124;5.196;2023-06-19T11:39:46;24.90;99.90
20732;DHT22;10527;52.124;5.196;2023-06-19T11:42:18;25.00;99.90
20732;DHT22;10527;52.124;5.196;2023-06-19T11:45:12;25.20;99.90
20732;DHT22;10527;52.124;5.196;2023-06-19T11:47:39;25.30;99.90
20732;DHT22;10527;52.124;5.196;2023-06-19T11:50:06;25.70;99.90
20732;DHT22;10527;52.124;5.196;2023-06-19T11:52:35;25.50;99.90
20732;DHT22;10527;52.124;5.196;2023-06-19T11:55:02;25.50;99.90
20732;DHT22;10527;52.124;5.196;2023-06-19T11:57:29;25.10;99.90
20732;DHT22;10527;52.124;5.196;2023-06-19T11:59:56;25.20;99.90
20732;DHT22;10527;52.124;5.196;2023-06-19T12:02:23;25.40;99.90
20732;DHT22;10527;52.124;5.196;2023-06-19T12:04:51;25.40;99.90
20732;DHT22;10527;52.124;5.196;2023-06-19T12:07:19;25.10;99.90
20732;DHT22;10527;52.124;5.196;2023-06-19T12:09:46;25.50;99.90
20732;DHT22;10527;52.124;5.196;2023-06-19T12:12:13;25.70;99.90
20732;DHT22;10527;52.124;5.196;2023-06-19T12:14:40;25.80;99.90
20732;DHT22;10527;52.124;5.196;2023-06-19T12:17:07;25.80;99.90
20732;DHT22;10527;52.124;5.196;2023-06-19T12:19:34;26.20;99.90
20732;DHT22;10527;52.124;5.196;2023-06-19T12:22:01;26.00;99.90
20732;DHT22;10527;52.124;5.196;2023-06-19T12:24:27;26.00;99.90
20732;DHT22;10527;52.124;5.196;2023-06-19T12:26:54;25.60;99.90
20732;DHT22;10527;52.124;5.196;2023-06-19T12:29:21;25.50;99.90
20732;DHT22;10527;52.124;5.196;2023-06-19T12:31:48;25.60;99.90
20732;DHT22;10527;52.124;5.196;2023-06-19T12:34:15;25.90;99.90
20732;DHT22;10527;52.124;5.196;2023-06-19T12:36:56;25.60;99.90
20732;DHT22;10527;52.124;5.196;2023-06-19T12:39:24;25.60;99.90
20732;DHT22;10527;52.124;5.196;2023-06-19T12:41:54;25.60;99.90
20732;DHT22;10527;52.124;5.196;2023-06-19T12:44:21;25.70;99.90
20732;DHT22;10527;52.124;5.196;2023-06-19T12:46:49;25.60;99.90
20732;DHT22;10527;52.124;5.196;2023-06-19T12:49:16;25.70;99.90
20732;DHT22;10527;52.124;5.196;2023-06-19T12:51:43;25.60;99.90
20732;DHT22;10527;52.124;5.196;2023-06-19T12:54:10;25.60;99.90
20732;DHT22;10527;52.124;5.196;2023-06-19T12:56:37;25.60;99.90
20732;DHT22;10527;52.124;5.196;2023-06-19T12:59:04;25.50;99.90
20732;DHT22;10527;52.124;5.196;2023-06-19T13:01:31;25.40;99.90
20732;DHT22;10527;52.124;5.196;2023-06-19T13:03:58;25.70;99.90
20732;DHT22;10527;52.124;5.196;2023-06-19T13:06:26;25.80;99.90
20732;DHT22;10527;52.124;5.196;2023-06-19T13:08:53;26.00;99.90
20732;DHT22;10527;52.124;5.196;2023-06-19T13:11:20;26.10;99.90
20732;DHT22;10527;52.124;5.196;2023-06-19T13:13:47;26.70;99.90
20732;DHT22;10527;52.124;5.196;2023-06-19T13:16:14;26.60;99.90
20732;DHT22;10527;52.124;5.196;2023-06-19T13:18:42;26.70;99.90
20732;DHT22;10527;52.124;5.196;2023-06-19T13:21:18;26.70;99.90
20732;DHT22;10527;52.124;5.196;2023-06-19T13:23:45;26.70;99.90
20732;DHT22;10527;52.124;5.196;2023-06-19T13:26:12;26.60;99.90
20732;DHT22;10527;52.124;5.196;2023-06-19T13:28:39;26.60;99.90
20732;DHT22;10527;52.124;5.196;2023-06-19T13:31:06;26.30;99.90
20732;DHT22;10527;52.124;5.196;2023-06-19T13:33:32;26.60;99.90
20732;DHT22;10527;52.124;5.196;2023-06-19T13:35:59;26.80;99.90
20732;DHT22;10527;52.124;5.196;2023-06-19T13:38:26;26.30;99.90
20732;DHT22;10527;52.124;5.196;2023-06-19T13:40:53;26.10;99.90
20732;DHT22;10527;52.124;5.196;2023-06-19T13:43:20;26.20;99.90
20732;DHT22;10527;52.124;5.196;2023-06-19T13:45:50;26.10;99.90
20732;DHT22;10527;52.124;5.196;2023-06-19T13:48:16;26.40;99.90
20732;DHT22;10527;52.124;5.196;2023-06-19T13:50:44;26.60;99.90
20732;DHT22;10527;52.124;5.196;2023-06-19T13:53:10;26.80;99.90
20732;DHT22;10527;52.124;5.196;2023-06-19T13:55:37;27.00;99.90
20732;DHT22;10527;52.124;5.196;2023-06-19T13:58:04;26.80;99.90
20732;DHT22;10527;52.124;5.196;2023-06-19T14:00:31;26.90;99.90
20732;DHT22;10527;52.124;5.196;2023-06-19T14:02:58;27.10;99.90
20732;DHT22;10527;52.124;5.196;2023-06-19T14:05:25;26.80;99.90
20732;DHT22;10527;52.124;5.196;2023-06-19T14:07:54;26.80;99.90
20732;DHT22;10527;52.124;5.196;2023-06-19T14:10:21;26.70;99.90
20732;DHT22;10527;52.124;5.196;2023-06-19T14:12:49;26.70;99.90
20732;DHT22;10527;52.124;5.196;2023-06-19T14:15:15;26.90;99.90
20732;DHT22;10527;52.124;5.196;2023-06-19T14:17:42;27.00;99.90
20732;DHT22;10527;52.124;5.196;2023-06-19T14:20:11;27.10;99.90
20732;DHT22;10527;52.124;5.196;2023-06-19T14:22:38;27.00;99.90
20732;DHT22;10527;52.124;5.196;2023-06-19T14:25:05;27.10;99.90
20732;DHT22;10527;52.124;5.196;2023-06-19T14:27:32;26.80;99.90
20732;DHT22;10527;52.124;5.196;2023-06-19T14:30:00;27.10;99.90
20732;DHT22;10527;52.124;5.196;2023-06-19T14:32:27;27.20;99.90
20732;DHT22;10527;52.124;5.196;2023-06-19T14:34:54;27.40;99.90
20732;DHT22;10527;52.124;5.196;2023-06-19T14:37:21;27.60;99.90
20732;DHT22;10527;52.124;5.196;2023-06-19T14:39:48;27.40;99.90
20732;DHT22;10527;52.124;5.196;2023-06-19T14:42:15;27.50;99.90
20732;DHT22;10527;52.124;5.196;2023-06-19T14:44:42;27.20;99.90
20732;DHT22;10527;52.124;5.196;2023-06-19T14:47:09;27.20;99.90
20732;DHT22;10527;52.124;5.196;2023-06-19T14:49:35;27.40;99.90
20732;DHT22;10527;52.124;5.196;2023-06-19T14:52:02;27.60;99.90
20732;DHT22;10527;52.124;5.196;2023-06-19T14:54:30;27.70;99.90
20732;DHT22;10527;52.124;5.196;2023-06-19T14:56:56;27.70;99.90
20732;DHT22;10527;52.124;5.196;2023-06-19T14:59:24;27.60;99.90
20732;DHT22;10527;52.124;5.196;2023-06-19T15:01:51;27.50;99.90
20732;DHT22;10527;52.124;5.196;2023-06-19T15:04:18;27.20;99.90
20732;DHT22;10527;52.124;5.196;2023-06-19T15:06:45;26.90;99.90
20732;DHT22;10527;52.124;5.196;2023-06-19T15:09:12;26.70;99.90
20732;DHT22;10527;52.124;5.196;2023-06-19T15:11:40;26.90;99.90
20732;DHT22;10527;52.124;5.196;2023-06-19T15:14:08;27.10;99.90
20732;DHT22;10527;52.124;5.196;2023-06-19T15:16:35;27.30;99.90
20732;DHT22;10527;52.124;5.196;2023-06-19T15:19:03;27.50;99.90
20732;DHT22;10527;52.124;5.196;2023-06-19T15:21:30;27.70;99.90
20732;DHT22;10527;52.124;5.196;2023-06-19T15:23:57;27.80;99.90
20732;DHT22;10527;52.124;5.196;2023-06-19T15:26:24;27.80;99.90
20732;DHT22;10527;52.124;5.196;2023-06-19T15:28:52;27.70;99.90
20732;DHT22;10527;52.124;5.196;2023-06-19T15:31:25;27.50;99.90
20732;DHT22;10527;52.124;5.196;2023-06-19T15:33:52;27.30;99.90
20732;DHT22;10527;52.124;5.196;2023-06-19T15:36:19;27.10;99.90
20732;DHT22;10527;52.124;5.196;2023-06-19T15:38:46;27.10;99.90
20732;DHT22;10527;52.124;5.196;2023-06-19T15:41:13;26.90;99.90
20732;DHT22;10527;52.124;5.196;2023-06-19T15:43:41;26.90;99.90
20732;DHT22;10527;52.124;5.196;2023-06-19T15:46:08;27.10;99.90
20732;DHT22;10527;52.124;5.196;2023-06-19T15:48:36;27.20;99.90